Hauptseite
METAR-TAF:

METAR-TAF

Flughäfen :

Lleida-Alguaire

Lleida, Spanien

Breite: 41-43-40N, Länge: 000-32-09E, Höhe: 350 m

Beobachtung

Neuester Wetterbericht von vor 22 Minuten, um 19:00 UTC
Wind 6 kt aus Süd/Südost
Temperatur 29°C
Luftfeuchtigkeit 55%
Luftdruck 1015 hPa
Sichtweite 10 km oder mehr
keine Wolken unter 1500 m und keine Kumulonimbus oder Gewitterwolken

METAR: LEDA 061900Z AUTO 16006KT CAVOK 29/19 Q1015

Zeit: 21:22 (19:22 UTC)


TAF: fehlend

Wetterbeobachtungen und Prognosen von mehr als 4000 Flughäfen (METAR und TAF Bericht).

Die verfügbaren Stationen werden durch gelbe und rote Markierungen auf der Karte dargestellt.

Führen Sie die Maus auf sie, um den Namen der Station zu sehen.

Darauf klicken, um die Beobachtung von Wetterbeobachtungen und Prognosen zu sehen.

Um die Karte zu ändern : klicken Sie auf den grünen Tasten mit einem schwarzen Kreuz Zum Vergrößern, auf den grünen Button mit einem Gedankenstrich zu verkleinern, oder auf die grünen Pfeile für benachbarte Karten.


METAR-TAF: